createdAt,value
2018-05-18T00:00:20.614Z,99758.35
2018-05-18T00:06:25.353Z,99749.17
2018-05-18T00:12:29.708Z,99750.00
2018-05-18T00:18:34.129Z,99743.28
2018-05-18T00:24:38.485Z,99751.27
2018-05-18T00:30:43.654Z,99756.64
2018-05-18T00:36:48.064Z,99743.69
2018-05-18T00:42:53.157Z,99736.14
2018-05-18T00:48:57.526Z,99747.50
2018-05-18T00:55:01.896Z,99753.25
2018-05-18T01:01:06.265Z,99747.52
2018-05-18T01:07:10.767Z,99752.27
2018-05-18T01:13:15.282Z,99747.55
2018-05-18T01:19:19.889Z,99740.05
2018-05-18T01:25:24.369Z,99746.77
2018-05-18T01:31:28.927Z,99743.53
2018-05-18T01:37:33.282Z,99733.05
2018-05-18T01:43:37.658Z,99746.00
2018-05-18T01:49:42.112Z,99748.23
2018-05-18T01:55:46.567Z,99750.23
2018-05-18T02:01:52.188Z,99755.23
2018-05-18T02:07:57.417Z,99753.67
2018-05-18T02:14:01.827Z,99755.95
2018-05-18T02:20:06.252Z,99750.51
2018-05-18T02:26:10.774Z,99760.33
2018-05-18T02:32:15.108Z,99754.08
2018-05-18T02:38:19.455Z,99747.30
2018-05-18T02:44:24.199Z,99755.22
2018-05-18T02:50:28.560Z,99754.06
2018-05-18T02:56:33.957Z,99757.18
2018-05-18T03:02:38.319Z,99748.30
2018-05-18T03:08:42.813Z,99751.16
2018-05-18T03:14:47.157Z,99753.31
2018-05-18T03:20:52.542Z,99767.05
2018-05-18T03:26:56.995Z,99776.34
2018-05-18T03:33:02.888Z,99779.92
2018-05-18T03:39:07.225Z,99782.60
2018-05-18T03:45:11.877Z,99782.60
2018-05-18T03:51:17.065Z,99781.84
2018-05-18T03:57:22.556Z,99784.09
2018-05-18T04:03:44.635Z,99787.65
2018-05-18T04:09:49.377Z,99793.34
2018-05-18T04:15:54.348Z,99795.08
2018-05-18T04:21:59.625Z,99805.84
2018-05-18T04:28:04.039Z,99803.69
2018-05-18T04:34:08.582Z,99803.17
2018-05-18T04:40:12.971Z,99812.16
2018-05-18T04:46:17.356Z,99816.39
2018-05-18T04:52:23.047Z,99821.34
2018-05-18T04:58:28.193Z,99822.23
2018-05-18T05:04:32.565Z,99819.91
2018-05-18T05:10:36.923Z,99829.71
2018-05-18T05:16:41.279Z,99829.31
2018-05-18T05:22:45.673Z,99830.52
2018-05-18T05:28:52.487Z,99844.85
2018-05-18T05:34:56.936Z,99846.34
2018-05-18T05:41:01.288Z,99845.83
2018-05-18T05:47:05.787Z,99852.48
2018-05-18T05:53:10.326Z,99855.11
2018-05-18T05:59:14.900Z,99864.72
2018-05-18T06:05:20.641Z,99870.62
2018-05-18T06:11:25.431Z,99881.92
2018-05-18T06:17:29.896Z,99881.90
2018-05-18T06:23:34.343Z,99897.66
2018-05-18T06:29:38.855Z,99896.48
2018-05-18T06:35:44.119Z,99904.22
2018-05-18T06:41:48.500Z,99912.89
2018-05-18T06:47:53.376Z,99908.97
2018-05-18T06:53:57.753Z,99911.30
2018-05-18T07:00:02.172Z,99919.34
2018-05-18T07:06:06.516Z,99921.91
2018-05-18T07:12:11.009Z,99908.89
2018-05-18T07:18:15.621Z,99903.70
2018-05-18T07:24:21.371Z,99916.47
2018-05-18T07:30:25.794Z,99915.44
2018-05-18T07:36:30.345Z,99916.13
2018-05-18T07:42:34.685Z,99912.77
2018-05-18T07:48:39.379Z,99913.66
2018-05-18T07:54:44.551Z,99926.56
2018-05-18T08:00:49.254Z,99919.20
2018-05-18T08:06:54.260Z,99927.06
2018-05-18T08:12:58.704Z,99924.59
2018-05-18T08:19:03.424Z,99925.63
2018-05-18T08:25:07.784Z,99930.80
2018-05-18T08:31:12.139Z,99939.94
2018-05-18T08:37:16.513Z,99944.43
2018-05-18T08:43:22.933Z,99944.87
2018-05-18T08:49:27.387Z,99943.97
2018-05-18T08:55:32.064Z,99954.05
2018-05-18T09:01:36.568Z,99939.70
2018-05-18T09:07:40.930Z,99945.26
2018-05-18T09:13:46.122Z,99948.16
2018-05-18T09:19:51.354Z,99949.30
2018-05-18T09:25:56.158Z,99943.62
2018-05-18T09:32:00.529Z,99947.77
2018-05-18T09:38:05.189Z,99961.77
2018-05-18T09:44:09.486Z,99962.36
2018-05-18T09:50:13.984Z,99969.52
2018-05-18T09:56:18.612Z,99964.08
2018-05-18T10:02:24.530Z,99968.40
2018-05-18T10:08:28.919Z,99973.86
2018-05-18T10:14:33.754Z,99971.11
2018-05-18T10:20:38.125Z,99969.44
2018-05-18T10:26:43.452Z,99978.56
2018-05-18T10:32:47.854Z,99974.87
2018-05-18T10:38:53.690Z,99976.39
2018-05-18T10:44:58.063Z,99980.13
2018-05-18T10:51:04.361Z,99971.09
2018-05-18T10:57:08.729Z,99971.58
2018-05-18T11:03:13.102Z,99974.51
2018-05-18T11:09:17.483Z,99972.26
2018-05-18T11:15:24.064Z,99966.50
2018-05-18T11:21:28.609Z,99963.82
2018-05-18T11:27:32.946Z,99970.03
2018-05-18T11:33:37.402Z,99967.10
2018-05-18T11:39:41.920Z,99962.83
2018-05-18T11:45:46.280Z,99954.05
2018-05-18T11:51:51.134Z,99953.91
2018-05-18T11:57:55.687Z,99960.77
2018-05-18T12:04:00.086Z,99957.09
2018-05-18T12:10:04.527Z,99957.48
2018-05-18T12:16:08.999Z,99955.90
2018-05-18T12:22:13.461Z,99954.20
2018-05-18T12:28:17.907Z,99955.59
2018-05-18T12:34:22.736Z,99952.48
2018-05-18T12:40:27.169Z,99949.55
2018-05-18T12:46:32.565Z,99944.61
2018-05-18T12:52:36.961Z,99948.29
2018-05-18T12:58:42.564Z,99957.41
2018-05-18T13:04:46.942Z,99955.86
2018-05-18T13:10:52.089Z,99950.94
2018-05-18T13:16:57.241Z,99939.21
2018-05-18T13:23:01.556Z,99938.89
2018-05-18T13:29:06.657Z,99946.27
2018-05-18T13:35:11.142Z,99940.81
2018-05-18T13:41:15.608Z,99943.84
2018-05-18T13:47:21.348Z,99939.91
2018-05-18T13:53:26.116Z,99945.98
2018-05-18T13:59:30.469Z,99944.72
2018-05-18T14:05:35.626Z,99936.00
2018-05-18T14:11:40.792Z,99939.55
2018-05-18T14:17:45.196Z,99932.38
2018-05-18T14:23:49.816Z,99930.59
2018-05-18T14:29:54.941Z,99935.98
2018-05-18T14:35:59.269Z,99924.16
2018-05-18T14:42:03.685Z,99931.13
2018-05-18T14:48:08.358Z,99929.75
2018-05-18T14:54:13.046Z,99920.54
2018-05-18T15:00:17.438Z,99924.67
2018-05-18T15:06:22.195Z,99923.48
2018-05-18T15:12:27.518Z,99926.73
2018-05-18T15:18:32.060Z,99917.44
2018-05-18T15:24:37.181Z,99922.64
2018-05-18T15:30:41.522Z,99916.36
2018-05-18T15:36:45.883Z,99920.57
2018-05-18T15:42:51.801Z,99916.77
2018-05-18T15:48:56.459Z,99912.66
2018-05-18T15:55:00.828Z,99916.11
2018-05-18T16:01:05.286Z,99908.58
2018-05-18T16:07:09.629Z,99908.55
2018-05-18T16:13:13.969Z,99909.27
2018-05-18T16:19:18.394Z,99904.99
2018-05-18T16:25:22.777Z,99904.27
2018-05-18T16:31:27.283Z,99893.48
2018-05-18T16:37:31.641Z,99884.30
2018-05-18T16:43:36.054Z,99888.75
2018-05-18T16:49:40.418Z,99887.85
2018-05-18T16:55:44.818Z,99886.59
2018-05-18T17:01:49.584Z,99886.62
2018-05-18T17:07:54.206Z,99883.45
2018-05-18T17:13:58.586Z,99889.64
2018-05-18T17:20:02.959Z,99891.75
2018-05-18T17:26:07.317Z,99890.34
2018-05-18T17:32:11.685Z,99884.80
2018-05-18T17:38:16.835Z,99877.91
2018-05-18T17:44:21.474Z,99889.81
2018-05-18T17:50:26.142Z,99893.97
2018-05-18T17:56:30.567Z,99893.20
2018-05-18T18:02:35.062Z,99887.69
2018-05-18T18:08:40.219Z,99896.33
2018-05-18T18:14:44.757Z,99896.38
2018-05-18T18:20:50.711Z,99886.91
2018-05-18T18:26:55.058Z,99890.44
2018-05-18T18:32:59.550Z,99893.95
2018-05-18T18:39:03.936Z,99887.13
2018-05-18T18:45:08.374Z,99892.84
2018-05-18T18:51:13.024Z,99891.09
2018-05-18T18:57:18.305Z,99894.87
2018-05-18T19:03:22.901Z,99900.11
2018-05-18T19:09:27.589Z,99908.55
2018-05-18T19:15:32.077Z,99910.47
2018-05-18T19:21:36.570Z,99918.10
2018-05-18T19:27:41.687Z,99914.36
2018-05-18T19:33:46.077Z,99921.32
2018-05-18T19:39:52.356Z,99925.20
2018-05-18T19:45:56.789Z,99929.09
2018-05-18T19:52:01.203Z,99925.98
2018-05-18T19:58:06.365Z,99932.03
2018-05-18T20:04:11.058Z,99927.73
2018-05-18T20:10:15.413Z,99928.51
2018-05-18T20:16:20.083Z,99926.49
2018-05-18T20:22:24.876Z,99928.53
2018-05-18T20:28:29.261Z,99935.91
2018-05-18T20:34:33.795Z,99933.71
2018-05-18T20:40:38.196Z,99939.46
2018-05-18T20:46:42.696Z,99934.26
2018-05-18T20:52:47.887Z,99930.02
2018-05-18T20:58:53.077Z,99935.04
2018-05-18T21:04:57.638Z,99939.00
2018-05-18T21:11:02.079Z,99948.83
2018-05-18T21:17:07.376Z,99943.62
2018-05-18T21:23:12.513Z,99940.28
2018-05-18T21:29:16.865Z,99949.25
2018-05-18T21:35:21.255Z,99952.48
2018-05-18T21:41:25.651Z,99954.52
2018-05-18T21:47:30.800Z,99952.86
2018-05-18T21:53:36.015Z,99949.52
2018-05-18T21:59:40.396Z,99955.45
2018-05-18T22:05:44.892Z,99947.42
2018-05-18T22:11:49.771Z,99956.73
2018-05-18T22:17:55.074Z,99948.35
2018-05-18T22:23:59.494Z,99952.39
2018-05-18T22:30:04.646Z,99950.25
2018-05-18T22:36:09.116Z,99958.52
2018-05-18T22:42:13.697Z,99960.80
2018-05-18T22:48:18.266Z,99955.08
2018-05-18T22:54:23.275Z,99948.28
2018-05-18T23:00:27.666Z,99945.28
2018-05-18T23:06:32.069Z,99938.55
2018-05-18T23:12:37.280Z,99932.45
2018-05-18T23:18:41.685Z,99935.15
2018-05-18T23:24:46.026Z,99935.78
2018-05-18T23:30:52.360Z,99943.30
2018-05-18T23:36:57.604Z,99938.31
2018-05-18T23:43:02.734Z,99942.69
2018-05-18T23:49:07.097Z,99938.81
2018-05-18T23:55:11.600Z,99930.89
